createdAt,value
2018-05-10T00:00:21.573Z,977.13
2018-05-10T00:01:21.623Z,977.16
2018-05-10T00:02:21.797Z,977.16
2018-05-10T00:03:22.607Z,977.15
2018-05-10T00:04:22.144Z,977.14
2018-05-10T00:05:22.318Z,977.13
2018-05-10T00:06:22.491Z,977.12
2018-05-10T00:07:22.664Z,977.05
2018-05-10T00:08:22.835Z,977.06
2018-05-10T00:09:23.005Z,977.04
2018-05-10T00:10:23.177Z,977.01
2018-05-10T00:11:23.350Z,976.98
2018-05-10T00:12:23.514Z,977.01
2018-05-10T00:13:23.687Z,977.02
2018-05-10T00:14:23.853Z,977.05
2018-05-10T00:15:24.028Z,977.08
2018-05-10T00:16:24.189Z,977.04
2018-05-10T00:17:24.368Z,977.01
2018-05-10T00:18:24.536Z,976.95
2018-05-10T00:19:24.710Z,976.96
2018-05-10T00:20:24.885Z,976.96
2018-05-10T00:21:25.171Z,976.93
2018-05-10T00:22:25.236Z,976.96
2018-05-10T00:23:25.398Z,976.97
2018-05-10T00:24:25.655Z,976.94
2018-05-10T00:25:25.734Z,976.96
2018-05-10T00:26:25.935Z,976.91
2018-05-10T00:27:26.069Z,976.94
2018-05-10T00:28:26.229Z,976.95
2018-05-10T00:29:26.396Z,976.95
2018-05-10T00:30:26.565Z,976.91
2018-05-10T00:31:26.736Z,976.93
2018-05-10T00:32:26.914Z,976.89
2018-05-10T00:33:27.079Z,976.88
2018-05-10T00:34:27.244Z,976.88
2018-05-10T00:35:27.419Z,976.89
2018-05-10T00:36:27.601Z,976.87
2018-05-10T00:37:27.769Z,976.89
2018-05-10T00:38:27.936Z,976.86
2018-05-10T00:39:28.106Z,976.87
2018-05-10T00:40:28.278Z,976.85
2018-05-10T00:41:28.447Z,976.83
2018-05-10T00:42:28.618Z,976.85
2018-05-10T00:43:28.798Z,976.83
2018-05-10T00:44:28.951Z,976.82
2018-05-10T00:45:29.123Z,976.79
2018-05-10T00:46:29.296Z,976.81
2018-05-10T00:47:29.455Z,976.83
2018-05-10T00:48:29.629Z,976.84
2018-05-10T00:49:29.798Z,976.83
2018-05-10T00:50:29.967Z,976.81
2018-05-10T00:51:31.300Z,976.81
2018-05-10T00:52:30.344Z,976.86
2018-05-10T00:53:30.512Z,976.86
2018-05-10T00:54:30.684Z,976.85
2018-05-10T00:55:30.848Z,976.80
2018-05-10T00:56:31.015Z,976.75
2018-05-10T00:57:31.392Z,976.77
2018-05-10T00:58:31.351Z,976.76
2018-05-10T00:59:31.526Z,976.76
2018-05-10T01:00:31.773Z,976.77
2018-05-10T01:01:31.870Z,976.72
2018-05-10T01:02:32.036Z,976.73
2018-05-10T01:03:32.209Z,976.74
2018-05-10T01:04:32.374Z,976.71
2018-05-10T01:05:32.549Z,976.75
2018-05-10T01:06:32.716Z,976.75
2018-05-10T01:07:32.903Z,976.77
2018-05-10T01:08:33.091Z,976.76
2018-05-10T01:09:33.256Z,976.83
2018-05-10T01:10:33.505Z,976.82
2018-05-10T01:11:33.560Z,976.82
2018-05-10T01:12:33.733Z,976.82
2018-05-10T01:13:34.034Z,976.84
2018-05-10T01:14:34.107Z,976.87
2018-05-10T01:15:34.270Z,976.85
2018-05-10T01:16:34.436Z,976.86
2018-05-10T01:17:34.604Z,976.89
2018-05-10T01:18:34.777Z,976.88
2018-05-10T01:19:35.148Z,976.92
2018-05-10T01:20:35.083Z,976.90
2018-05-10T01:21:35.252Z,976.91
2018-05-10T01:22:35.558Z,976.91
2018-05-10T01:23:35.664Z,976.90
2018-05-10T01:24:35.730Z,976.92
2018-05-10T01:25:35.902Z,976.90
2018-05-10T01:26:36.072Z,976.91
2018-05-10T01:27:36.292Z,976.92
2018-05-10T01:28:36.362Z,976.93
2018-05-10T01:29:36.528Z,976.87
2018-05-10T01:30:36.692Z,976.85
2018-05-10T01:31:36.870Z,976.84
2018-05-10T01:32:37.034Z,976.83
2018-05-10T01:33:37.202Z,976.79
2018-05-10T01:34:37.376Z,976.76
2018-05-10T01:35:37.545Z,976.79
2018-05-10T01:36:37.715Z,976.76
2018-05-10T01:37:37.886Z,976.76
2018-05-10T01:38:38.057Z,976.73
2018-05-10T01:39:38.228Z,976.72
2018-05-10T01:40:38.401Z,976.73
2018-05-10T01:41:38.572Z,976.73
2018-05-10T01:42:38.741Z,976.73
2018-05-10T01:43:38.910Z,976.72
2018-05-10T01:44:39.072Z,976.74
2018-05-10T01:45:39.241Z,976.74
2018-05-10T01:46:39.489Z,976.79
2018-05-10T01:47:39.638Z,976.83
2018-05-10T01:48:39.853Z,976.80
2018-05-10T01:49:39.968Z,976.82
2018-05-10T01:50:40.350Z,976.87
2018-05-10T01:51:40.321Z,976.84
2018-05-10T01:52:40.484Z,976.84
2018-05-10T01:53:40.651Z,976.88
2018-05-10T01:54:40.821Z,976.84
2018-05-10T01:55:40.997Z,976.90
2018-05-10T01:56:41.171Z,976.87
2018-05-10T01:57:41.341Z,976.88
2018-05-10T01:58:41.511Z,976.85
2018-05-10T01:59:41.680Z,976.83
2018-05-10T02:00:41.848Z,976.81
2018-05-10T02:01:42.030Z,976.81
2018-05-10T02:02:42.193Z,976.82
2018-05-10T02:03:42.604Z,976.86
2018-05-10T02:04:42.583Z,976.83
2018-05-10T02:05:42.748Z,976.84
2018-05-10T02:06:42.916Z,976.84
2018-05-10T02:07:43.094Z,976.82
2018-05-10T02:08:43.267Z,976.80
2018-05-10T02:09:43.438Z,976.82
2018-05-10T02:10:43.605Z,976.81
2018-05-10T02:11:43.774Z,976.82
2018-05-10T02:12:44.041Z,976.80
2018-05-10T02:13:44.162Z,976.81
2018-05-10T02:14:44.371Z,976.84
2018-05-10T02:15:44.506Z,976.82
2018-05-10T02:16:44.678Z,976.83
2018-05-10T02:17:44.874Z,976.83
2018-05-10T02:18:45.633Z,976.78
2018-05-10T02:19:45.185Z,976.79
2018-05-10T02:20:45.349Z,976.77
2018-05-10T02:21:45.537Z,976.76
2018-05-10T02:22:45.714Z,976.72
2018-05-10T02:23:45.880Z,976.78
2018-05-10T02:24:46.049Z,976.79
2018-05-10T02:25:46.219Z,976.79
2018-05-10T02:26:46.390Z,976.81
2018-05-10T02:27:46.555Z,976.82
2018-05-10T02:28:46.719Z,976.85
2018-05-10T02:29:47.299Z,976.86
2018-05-10T02:30:47.075Z,976.88
2018-05-10T02:31:47.299Z,976.85
2018-05-10T02:32:47.434Z,976.81
2018-05-10T02:33:47.602Z,976.80
2018-05-10T02:34:47.774Z,976.83
2018-05-10T02:35:47.947Z,976.81
2018-05-10T02:36:48.107Z,976.83
2018-05-10T02:37:48.426Z,976.83
2018-05-10T02:38:48.392Z,976.80
2018-05-10T02:39:48.559Z,976.87
2018-05-10T02:40:48.729Z,976.91
2018-05-10T02:41:49.816Z,976.91
2018-05-10T02:42:49.063Z,976.91
2018-05-10T02:43:49.223Z,976.92
2018-05-10T02:44:49.396Z,976.93
2018-05-10T02:45:50.423Z,976.94
2018-05-10T02:46:49.741Z,976.98
2018-05-10T02:47:49.904Z,976.96
2018-05-10T02:48:50.071Z,976.99
2018-05-10T02:49:50.242Z,977.02
2018-05-10T02:50:50.408Z,977.05
2018-05-10T02:51:50.580Z,977.06
2018-05-10T02:52:50.755Z,977.05
2018-05-10T02:53:50.926Z,977.03
2018-05-10T02:54:51.094Z,977.04
2018-05-10T02:55:51.261Z,977.01
2018-05-10T02:56:51.433Z,977.01
2018-05-10T02:57:51.594Z,976.97
2018-05-10T02:58:51.763Z,976.94
2018-05-10T02:59:51.926Z,976.95
2018-05-10T03:00:52.214Z,976.88
2018-05-10T03:01:52.245Z,976.89
2018-05-10T03:02:52.415Z,976.88
2018-05-10T03:03:52.582Z,976.89
2018-05-10T03:04:52.752Z,976.85
2018-05-10T03:05:52.918Z,976.86
2018-05-10T03:06:53.091Z,976.88
2018-05-10T03:07:53.261Z,976.88
2018-05-10T03:08:53.450Z,976.86
2018-05-10T03:09:53.710Z,976.84
2018-05-10T03:10:53.756Z,976.89
2018-05-10T03:11:53.949Z,976.87
2018-05-10T03:12:54.116Z,976.87
2018-05-10T03:13:55.144Z,976.90
2018-05-10T03:14:54.438Z,976.91
2018-05-10T03:15:54.601Z,976.92
2018-05-10T03:16:54.777Z,976.91
2018-05-10T03:17:54.947Z,976.94
2018-05-10T03:18:55.118Z,976.95
2018-05-10T03:19:55.305Z,976.93
2018-05-10T03:20:55.495Z,976.94
2018-05-10T03:21:55.661Z,976.94
2018-05-10T03:22:55.840Z,976.91
2018-05-10T03:23:56.012Z,976.88
2018-05-10T03:24:56.176Z,976.83
2018-05-10T03:25:56.349Z,976.82
2018-05-10T03:26:56.515Z,976.87
2018-05-10T03:27:56.717Z,976.82
2018-05-10T03:28:56.856Z,976.87
2018-05-10T03:29:57.139Z,976.85
2018-05-10T03:30:58.147Z,976.87
2018-05-10T03:31:57.345Z,976.87
2018-05-10T03:32:57.508Z,976.84
2018-05-10T03:33:57.677Z,976.83
2018-05-10T03:34:57.850Z,976.83
2018-05-10T03:35:58.022Z,976.84
2018-05-10T03:36:58.192Z,976.84
2018-05-10T03:37:58.355Z,976.84
2018-05-10T03:38:58.528Z,976.86
2018-05-10T03:39:58.699Z,976.88
2018-05-10T03:40:58.870Z,976.91
2018-05-10T03:41:59.039Z,976.92
2018-05-10T03:42:59.210Z,976.90
2018-05-10T03:43:59.387Z,976.92
2018-05-10T03:44:59.556Z,976.93
2018-05-10T03:45:59.725Z,976.96
2018-05-10T03:46:59.894Z,976.93
2018-05-10T03:48:00.054Z,976.92
2018-05-10T03:49:00.235Z,976.92
2018-05-10T03:50:00.398Z,976.89
2018-05-10T03:51:00.570Z,976.89
2018-05-10T03:52:00.739Z,976.92
2018-05-10T03:53:00.905Z,976.92
2018-05-10T03:54:01.078Z,976.92
2018-05-10T03:55:01.247Z,976.95
2018-05-10T03:56:01.425Z,976.93
2018-05-10T03:57:01.585Z,976.96
2018-05-10T03:58:01.754Z,976.96
2018-05-10T03:59:01.926Z,977.00
2018-05-10T04:00:02.096Z,976.97
2018-05-10T04:01:02.265Z,976.95
2018-05-10T04:02:02.445Z,976.97
2018-05-10T04:03:02.604Z,976.98
2018-05-10T04:04:02.792Z,976.99
2018-05-10T04:05:02.938Z,977.00
2018-05-10T04:06:03.140Z,977.01
2018-05-10T04:07:03.275Z,977.04
2018-05-10T04:08:03.443Z,977.06
2018-05-10T04:09:03.614Z,977.04
2018-05-10T04:10:03.796Z,977.04
2018-05-10T04:11:03.955Z,977.02
2018-05-10T04:12:04.126Z,977.03
2018-05-10T04:13:04.300Z,977.03
2018-05-10T04:14:04.470Z,977.03
2018-05-10T04:15:04.652Z,977.06
2018-05-10T04:16:04.821Z,977.04
2018-05-10T04:17:04.985Z,977.02
2018-05-10T04:18:05.152Z,977.02
2018-05-10T04:19:05.322Z,977.04
2018-05-10T04:20:05.489Z,977.05
2018-05-10T04:21:05.661Z,977.06
2018-05-10T04:22:05.830Z,977.07
2018-05-10T04:23:05.990Z,977.10
2018-05-10T04:24:06.164Z,977.09
2018-05-10T04:25:06.324Z,977.07
2018-05-10T04:26:06.497Z,977.09
2018-05-10T04:27:06.669Z,977.10
2018-05-10T04:28:06.834Z,977.08
2018-05-10T04:29:07.007Z,977.10
2018-05-10T04:30:07.172Z,977.10
2018-05-10T04:31:07.342Z,977.14
2018-05-10T04:32:07.506Z,977.15
2018-05-10T04:33:07.677Z,977.14
2018-05-10T04:34:07.845Z,977.17
2018-05-10T04:35:08.018Z,977.15
2018-05-10T04:36:08.178Z,977.11
2018-05-10T04:37:08.348Z,977.13
2018-05-10T04:38:08.521Z,977.14
2018-05-10T04:39:08.688Z,977.13
2018-05-10T04:40:08.887Z,977.12
2018-05-10T04:41:09.126Z,977.14
2018-05-10T04:42:09.279Z,977.14
2018-05-10T04:43:09.363Z,977.16
2018-05-10T04:44:09.538Z,977.14
2018-05-10T04:45:09.701Z,977.19
2018-05-10T04:46:09.875Z,977.20
2018-05-10T04:47:10.067Z,977.17
2018-05-10T04:48:10.237Z,977.18
2018-05-10T04:49:10.565Z,977.18
2018-05-10T04:50:10.521Z,977.16
2018-05-10T04:51:10.688Z,977.18
2018-05-10T04:52:10.856Z,977.17
2018-05-10T04:53:11.032Z,977.15
2018-05-10T04:54:11.201Z,977.21
2018-05-10T04:55:11.362Z,977.21
2018-05-10T04:56:11.534Z,977.22
2018-05-10T04:57:11.707Z,977.23
2018-05-10T04:58:11.879Z,977.25
2018-05-10T04:59:12.040Z,977.31
2018-05-10T05:00:12.202Z,977.28
2018-05-10T05:01:12.378Z,977.30
2018-05-10T05:02:12.533Z,977.32
2018-05-10T05:03:12.693Z,977.32
2018-05-10T05:04:12.859Z,977.30
2018-05-10T05:05:13.028Z,977.30
2018-05-10T05:06:13.200Z,977.30
2018-05-10T05:07:13.374Z,977.29
2018-05-10T05:08:13.602Z,977.30
2018-05-10T05:09:13.711Z,977.31
2018-05-10T05:10:13.876Z,977.31
2018-05-10T05:11:14.049Z,977.27
2018-05-10T05:12:14.210Z,977.28
2018-05-10T05:13:14.384Z,977.29
2018-05-10T05:14:14.551Z,977.33
2018-05-10T05:15:14.723Z,977.35
2018-05-10T05:16:14.895Z,977.39
2018-05-10T05:17:15.059Z,977.41
2018-05-10T05:18:15.228Z,977.44
2018-05-10T05:19:15.385Z,977.47
2018-05-10T05:20:15.555Z,977.48
2018-05-10T05:21:15.726Z,977.46
2018-05-10T05:22:15.890Z,977.47
2018-05-10T05:23:16.057Z,977.47
2018-05-10T05:24:16.226Z,977.48
2018-05-10T05:25:16.399Z,977.46
2018-05-10T05:26:16.570Z,977.46
2018-05-10T05:27:16.732Z,977.46
2018-05-10T05:28:16.913Z,977.47
2018-05-10T05:29:17.079Z,977.49
2018-05-10T05:30:17.248Z,977.46
2018-05-10T05:31:17.417Z,977.43
2018-05-10T05:32:17.648Z,977.45
2018-05-10T05:33:17.754Z,977.46
2018-05-10T05:34:17.920Z,977.45
2018-05-10T05:35:18.089Z,977.44
2018-05-10T05:36:19.170Z,977.43
2018-05-10T05:37:18.435Z,977.46
2018-05-10T05:38:18.601Z,977.47
2018-05-10T05:39:18.778Z,977.50
2018-05-10T05:40:18.940Z,977.48
2018-05-10T05:41:19.169Z,977.52
2018-05-10T05:42:19.266Z,977.56
2018-05-10T05:43:19.545Z,977.57
2018-05-10T05:44:19.598Z,977.60
2018-05-10T05:45:19.768Z,977.56
2018-05-10T05:46:20.057Z,977.57
2018-05-10T05:47:20.072Z,977.57
2018-05-10T05:48:20.240Z,977.55
2018-05-10T05:49:20.417Z,977.54
2018-05-10T05:50:20.584Z,977.59
2018-05-10T05:51:20.827Z,977.57
2018-05-10T05:52:20.930Z,977.58
2018-05-10T05:53:21.096Z,977.58
2018-05-10T05:54:21.263Z,977.57
2018-05-10T05:55:21.440Z,977.61
2018-05-10T05:56:21.604Z,977.60
2018-05-10T05:57:21.766Z,977.64
2018-05-10T05:58:21.939Z,977.62
2018-05-10T05:59:22.107Z,977.63
2018-05-10T06:00:22.274Z,977.66
2018-05-10T06:01:22.443Z,977.62
2018-05-10T06:02:22.611Z,977.68
2018-05-10T06:03:22.777Z,977.72
2018-05-10T06:04:22.948Z,977.74
2018-05-10T06:05:23.220Z,977.74
2018-05-10T06:06:23.272Z,977.81
2018-05-10T06:07:23.453Z,977.83
2018-05-10T06:08:23.623Z,977.89
2018-05-10T06:09:23.807Z,977.84
2018-05-10T06:10:23.960Z,977.86
2018-05-10T06:11:24.148Z,977.86
2018-05-10T06:12:24.332Z,977.84
2018-05-10T06:13:24.508Z,977.83
2018-05-10T06:14:24.671Z,977.82
2018-05-10T06:15:24.915Z,977.86
2018-05-10T06:16:25.008Z,977.88
2018-05-10T06:17:25.179Z,977.87
2018-05-10T06:18:25.350Z,977.90
2018-05-10T06:19:25.520Z,977.92
2018-05-10T06:20:25.696Z,977.90
2018-05-10T06:21:25.866Z,977.91
2018-05-10T06:22:26.048Z,977.92
2018-05-10T06:23:26.227Z,977.92
2018-05-10T06:24:26.400Z,977.92
2018-05-10T06:25:26.568Z,977.92
2018-05-10T06:26:26.735Z,977.89
2018-05-10T06:27:26.906Z,977.86
2018-05-10T06:28:27.135Z,977.91
2018-05-10T06:29:27.241Z,977.90
2018-05-10T06:30:27.418Z,977.93
2018-05-10T06:31:27.597Z,977.91
2018-05-10T06:32:27.773Z,977.90
2018-05-10T06:33:27.976Z,977.91
2018-05-10T06:34:28.194Z,977.93
2018-05-10T06:35:28.299Z,977.96
2018-05-10T06:36:28.469Z,977.98
2018-05-10T06:37:28.647Z,978.05
2018-05-10T06:38:28.886Z,978.06
2018-05-10T06:39:28.930Z,978.09
2018-05-10T06:40:29.099Z,978.15
2018-05-10T06:41:29.281Z,978.19
2018-05-10T06:42:29.437Z,978.17
2018-05-10T06:43:29.609Z,978.21
2018-05-10T06:44:29.784Z,978.27
2018-05-10T06:45:29.954Z,978.25
2018-05-10T06:46:30.124Z,978.33
2018-05-10T06:47:30.298Z,978.34
2018-05-10T06:48:30.470Z,978.35
2018-05-10T06:49:30.637Z,978.38
2018-05-10T06:50:30.817Z,978.43
2018-05-10T06:51:30.989Z,978.45
2018-05-10T06:52:31.150Z,978.46
2018-05-10T06:53:31.318Z,978.36
2018-05-10T06:54:31.553Z,978.38
2018-05-10T06:55:31.659Z,978.36
2018-05-10T06:56:31.831Z,978.36
2018-05-10T06:57:32.008Z,978.35
2018-05-10T06:58:32.182Z,978.42
2018-05-10T06:59:32.344Z,978.48
2018-05-10T07:00:32.521Z,978.44
2018-05-10T07:01:32.695Z,978.49
2018-05-10T07:02:32.868Z,978.44
2018-05-10T07:03:33.045Z,978.42
2018-05-10T07:04:33.219Z,978.42
2018-05-10T07:05:33.392Z,978.46
2018-05-10T07:06:33.555Z,978.44
2018-05-10T07:07:33.726Z,978.49
2018-05-10T07:08:33.898Z,978.52
2018-05-10T07:09:34.232Z,978.50
2018-05-10T07:10:34.250Z,978.55
2018-05-10T07:11:34.416Z,978.62
2018-05-10T07:12:34.602Z,978.55
2018-05-10T07:13:34.773Z,978.58
2018-05-10T07:14:34.942Z,978.59
2018-05-10T07:15:35.110Z,978.62
2018-05-10T07:16:35.278Z,978.61
2018-05-10T07:17:35.449Z,978.57
2018-05-10T07:18:35.622Z,978.51
2018-05-10T07:19:35.806Z,978.59
2018-05-10T07:20:35.985Z,978.58
2018-05-10T07:21:36.154Z,978.61
2018-05-10T07:22:36.350Z,978.59
2018-05-10T07:23:36.520Z,978.56
2018-05-10T07:24:36.685Z,978.55
2018-05-10T07:25:37.095Z,978.51
2018-05-10T07:26:37.032Z,978.60
2018-05-10T07:27:37.207Z,978.62
2018-05-10T07:28:37.376Z,978.59
2018-05-10T07:29:37.547Z,978.56
2018-05-10T07:30:37.720Z,978.57
2018-05-10T07:31:37.905Z,978.64
2018-05-10T07:32:38.074Z,978.58
2018-05-10T07:33:38.246Z,978.60
2018-05-10T07:34:38.429Z,978.57
2018-05-10T07:35:38.593Z,978.61
2018-05-10T07:36:38.757Z,978.58
2018-05-10T07:37:38.963Z,978.60
2018-05-10T07:38:39.132Z,978.60
2018-05-10T07:39:39.294Z,978.60
2018-05-10T07:40:39.471Z,978.59
2018-05-10T07:41:39.646Z,978.57
2018-05-10T07:42:39.818Z,978.59
2018-05-10T07:43:39.986Z,978.61
2018-05-10T07:44:40.160Z,978.59
2018-05-10T07:45:40.331Z,978.59
2018-05-10T07:46:40.510Z,978.59
2018-05-10T07:47:40.683Z,978.61
2018-05-10T07:48:40.855Z,978.55
2018-05-10T07:49:41.024Z,978.62
2018-05-10T07:50:41.206Z,978.61
2018-05-10T07:51:41.383Z,978.62
2018-05-10T07:52:41.544Z,978.59
2018-05-10T07:53:41.717Z,978.57
2018-05-10T07:54:41.909Z,978.60
2018-05-10T07:55:42.105Z,978.64
2018-05-10T07:56:42.272Z,978.62
2018-05-10T07:57:42.444Z,978.61
2018-05-10T07:58:42.616Z,978.61
2018-05-10T07:59:42.790Z,978.64
2018-05-10T08:00:42.960Z,978.66
2018-05-10T08:01:43.153Z,978.66
2018-05-10T08:02:43.342Z,978.67
2018-05-10T08:03:43.507Z,978.70
2018-05-10T08:04:43.679Z,978.70
2018-05-10T08:05:43.853Z,978.69
2018-05-10T08:06:44.027Z,978.73
2018-05-10T08:07:44.197Z,978.69
2018-05-10T08:08:44.377Z,978.74
2018-05-10T08:09:44.546Z,978.75
2018-05-10T08:10:44.718Z,978.75
2018-05-10T08:11:44.892Z,978.76
2018-05-10T08:12:45.062Z,978.77
2018-05-10T08:13:45.236Z,978.77
2018-05-10T08:14:45.413Z,978.79
2018-05-10T08:15:45.582Z,978.79
2018-05-10T08:16:45.760Z,978.82
2018-05-10T08:17:45.934Z,978.85
2018-05-10T08:18:46.102Z,978.81
2018-05-10T08:19:46.271Z,978.87
2018-05-10T08:20:46.447Z,978.86
2018-05-10T08:21:46.624Z,978.87
2018-05-10T08:22:46.787Z,978.91
2018-05-10T08:23:46.961Z,978.96
2018-05-10T08:24:47.129Z,978.92
2018-05-10T08:25:47.333Z,978.94
2018-05-10T08:26:47.501Z,978.93
2018-05-10T08:27:47.675Z,978.97
2018-05-10T08:28:47.876Z,979.01
2018-05-10T08:29:48.061Z,979.01
2018-05-10T08:30:48.226Z,979.01
2018-05-10T08:31:48.397Z,979.03
2018-05-10T08:32:48.578Z,979.07
2018-05-10T08:33:48.748Z,979.01
2018-05-10T08:34:48.922Z,979.03
2018-05-10T08:35:49.094Z,979.04
2018-05-10T08:36:49.365Z,979.07
2018-05-10T08:37:49.441Z,979.02
2018-05-10T08:38:49.617Z,979.08
2018-05-10T08:39:49.798Z,979.11
2018-05-10T08:42:34.444Z,979.21
2018-05-10T08:43:34.607Z,979.20
2018-05-10T08:44:34.789Z,979.25
2018-05-10T08:45:34.971Z,979.24
2018-05-10T08:46:35.133Z,979.22
2018-05-10T08:47:35.311Z,979.23
2018-05-10T08:48:35.713Z,979.17
2018-05-10T08:49:35.680Z,979.18
2018-05-10T08:50:35.869Z,979.18
2018-05-10T08:51:36.135Z,979.20
2018-05-10T08:52:36.228Z,979.23
2018-05-10T08:53:36.396Z,979.20
2018-05-10T08:54:37.327Z,979.26
2018-05-10T08:55:36.841Z,979.27
2018-05-10T08:56:36.978Z,979.27
2018-05-10T08:57:37.145Z,979.27
2018-05-10T08:58:37.325Z,979.30
2018-05-10T08:59:37.566Z,979.35
2018-05-10T09:00:37.619Z,979.34
2018-05-10T09:01:37.795Z,979.32
2018-05-10T09:02:37.975Z,979.34
2018-05-10T09:03:38.155Z,979.34
2018-05-10T09:04:38.389Z,979.42
2018-05-10T09:05:38.660Z,979.32
2018-05-10T09:06:38.767Z,979.37
2018-05-10T09:07:38.946Z,979.38
2018-05-10T09:08:39.122Z,979.36
2018-05-10T09:09:39.308Z,979.37
2018-05-10T09:10:39.480Z,979.38
2018-05-10T09:11:39.663Z,979.33
2018-05-10T09:12:39.849Z,979.35
2018-05-10T09:13:40.066Z,979.37
2018-05-10T09:14:40.216Z,979.37
2018-05-10T09:15:41.335Z,979.36
2018-05-10T09:16:40.569Z,979.39
2018-05-10T09:17:40.755Z,979.38
2018-05-10T09:18:40.950Z,979.39
2018-05-10T09:19:41.130Z,979.41
2018-05-10T09:20:41.307Z,979.39
2018-05-10T09:21:41.495Z,979.43
2018-05-10T09:22:41.680Z,979.45
2018-05-10T09:23:41.880Z,979.45
2018-05-10T09:24:42.061Z,979.50
2018-05-10T09:25:42.265Z,979.49
2018-05-10T09:26:42.468Z,979.51
2018-05-10T09:27:42.650Z,979.46
2018-05-10T09:28:42.833Z,979.51
2018-05-10T09:29:43.008Z,979.49
2018-05-10T09:30:43.204Z,979.50
2018-05-10T09:31:43.387Z,979.50
2018-05-10T09:32:43.584Z,979.51
2018-05-10T09:33:43.793Z,979.50
2018-05-10T09:34:43.948Z,979.58
2018-05-10T09:35:44.140Z,979.61
2018-05-10T09:36:44.415Z,979.53
2018-05-10T09:37:44.493Z,979.53
2018-05-10T09:38:44.676Z,979.63
2018-05-10T09:39:44.869Z,979.65
2018-05-10T09:40:45.055Z,979.69
2018-05-10T09:41:45.297Z,979.69
2018-05-10T09:42:45.495Z,979.61
2018-05-10T09:43:45.819Z,979.65
2018-05-10T09:44:45.958Z,979.68
2018-05-10T09:45:46.095Z,979.72
2018-05-10T09:46:46.289Z,979.76
2018-05-10T09:47:47.344Z,979.71
2018-05-10T09:48:46.681Z,979.66
2018-05-10T09:49:46.745Z,979.65
2018-05-10T09:50:46.930Z,979.65
2018-05-10T09:51:47.120Z,979.76
2018-05-10T09:52:47.335Z,979.76
2018-05-10T09:53:47.494Z,979.79
2018-05-10T09:54:47.677Z,979.80
2018-05-10T09:55:47.860Z,979.79
2018-05-10T09:56:48.225Z,979.71
2018-05-10T09:57:48.229Z,979.59
2018-05-10T09:58:48.432Z,979.87
2018-05-10T09:59:48.610Z,979.81
2018-05-10T10:00:48.794Z,979.78
2018-05-10T10:01:48.986Z,979.82
2018-05-10T10:02:49.167Z,979.76
2018-05-10T10:03:49.351Z,979.69
2018-05-10T10:04:49.538Z,979.75
2018-05-10T10:05:50.100Z,979.76
2018-05-10T10:06:49.958Z,979.65
2018-05-10T10:07:50.147Z,979.81
2018-05-10T10:08:50.334Z,979.80
2018-05-10T10:09:50.652Z,979.72
2018-05-10T10:10:50.704Z,979.86
2018-05-10T10:11:50.866Z,979.84
2018-05-10T10:12:51.049Z,979.78
2018-05-10T10:13:51.242Z,979.54
2018-05-10T10:14:51.432Z,979.46
2018-05-10T10:15:51.620Z,979.44
2018-05-10T10:16:51.811Z,979.40
2018-05-10T10:17:52.002Z,979.44
2018-05-10T10:18:52.262Z,979.43
2018-05-10T10:19:52.481Z,979.46
2018-05-10T10:20:52.562Z,979.35
2018-05-10T10:21:52.752Z,979.36
2018-05-10T10:22:52.940Z,979.44
2018-05-10T10:23:53.121Z,979.50
2018-05-10T10:24:53.308Z,979.52
2018-05-10T10:25:54.366Z,979.51
2018-05-10T10:26:53.680Z,979.50
2018-05-10T10:27:54.852Z,979.49
2018-05-10T10:28:54.051Z,979.48
2018-05-10T10:29:54.842Z,979.47
2018-05-10T10:30:54.413Z,979.29
2018-05-10T10:31:54.607Z,979.29
2018-05-10T10:32:55.022Z,979.28
2018-05-10T10:33:55.027Z,979.29
2018-05-10T10:34:55.220Z,979.28
2018-05-10T10:35:55.407Z,979.25
2018-05-10T10:36:55.593Z,979.40
2018-05-10T10:37:55.787Z,979.45
2018-05-10T10:38:56.009Z,979.43
2018-05-10T10:39:56.157Z,979.35
2018-05-10T10:40:56.331Z,979.34
2018-05-10T10:41:56.606Z,979.36
2018-05-10T10:42:56.709Z,979.34
2018-05-10T10:43:57.165Z,979.38
2018-05-10T10:44:57.110Z,979.34
2018-05-10T10:45:57.297Z,979.36
2018-05-10T10:46:57.485Z,979.38
2018-05-10T10:47:57.677Z,979.39
2018-05-10T10:48:57.854Z,979.47
2018-05-10T10:49:58.040Z,979.50
2018-05-10T10:50:58.223Z,979.48
2018-05-10T10:51:58.412Z,979.45
2018-05-10T10:52:59.487Z,979.32
2018-05-10T10:53:58.835Z,979.38
2018-05-10T10:54:58.970Z,979.39
2018-05-10T10:55:59.191Z,979.42
2018-05-10T10:56:59.289Z,979.47
2018-05-10T10:57:59.556Z,979.64
2018-05-10T10:58:59.698Z,979.60
2018-05-10T10:59:59.939Z,979.59
2018-05-10T11:00:59.980Z,979.58
2018-05-10T11:02:00.261Z,979.60
2018-05-10T11:03:00.330Z,979.63
2018-05-10T11:04:00.510Z,979.65
2018-05-10T11:05:00.689Z,979.69
2018-05-10T11:06:00.924Z,979.68
2018-05-10T11:07:01.069Z,979.71
2018-05-10T11:08:01.234Z,979.80
2018-05-10T11:09:01.432Z,979.74
2018-05-10T11:10:01.616Z,979.89
2018-05-10T11:11:01.802Z,979.80
2018-05-10T11:12:01.987Z,979.81
2018-05-10T11:13:02.172Z,979.77
2018-05-10T11:14:02.352Z,979.77
2018-05-10T11:15:02.687Z,979.79
2018-05-10T11:16:02.735Z,979.78
2018-05-10T11:17:02.909Z,979.75
2018-05-10T11:18:03.093Z,979.70
2018-05-10T11:19:03.268Z,979.71
2018-05-10T11:20:03.611Z,979.57
2018-05-10T11:21:04.365Z,979.52
2018-05-10T11:22:03.909Z,979.60
2018-05-10T11:23:04.080Z,979.78
2018-05-10T11:24:04.446Z,979.77
2018-05-10T11:25:05.857Z,979.81
2018-05-10T11:26:04.703Z,979.77
2018-05-10T11:27:04.882Z,979.71
2018-05-10T11:28:05.064Z,979.72
2018-05-10T11:29:05.867Z,979.74
2018-05-10T11:30:05.457Z,979.71
2018-05-10T11:31:05.628Z,979.64
2018-05-10T11:32:05.811Z,979.68
2018-05-10T11:33:06.132Z,979.65
2018-05-10T11:34:06.170Z,979.77
2018-05-10T11:35:06.354Z,979.74
2018-05-10T11:36:06.540Z,979.53
2018-05-10T11:37:06.718Z,979.48
2018-05-10T11:38:06.896Z,979.46
2018-05-10T11:39:07.121Z,979.47
2018-05-10T11:40:07.273Z,979.51
2018-05-10T11:41:07.448Z,979.62
2018-05-10T11:42:07.666Z,979.59
2018-05-10T11:43:07.800Z,979.65
2018-05-10T11:44:07.989Z,979.50
2018-05-10T11:45:08.254Z,979.49
2018-05-10T11:46:08.355Z,979.62
2018-05-10T11:47:08.535Z,979.49
2018-05-10T11:48:08.712Z,979.46
2018-05-10T11:49:08.897Z,979.51
2018-05-10T11:50:09.080Z,979.50
2018-05-10T11:51:09.260Z,979.52
2018-05-10T11:52:09.438Z,979.51
2018-05-10T11:53:09.618Z,979.51
2018-05-10T11:54:09.795Z,979.63
2018-05-10T11:55:10.042Z,979.68
2018-05-10T11:56:10.154Z,979.70
2018-05-10T11:57:10.324Z,979.68
2018-05-10T11:58:10.513Z,979.67
2018-05-10T11:59:10.688Z,979.69
2018-05-10T12:00:10.867Z,979.71
2018-05-10T12:01:11.051Z,979.69
2018-05-10T12:02:11.286Z,979.66
2018-05-10T12:03:11.403Z,979.71
2018-05-10T12:04:11.779Z,979.65
2018-05-10T12:05:11.756Z,979.63
2018-05-10T12:06:12.104Z,979.68
2018-05-10T12:07:12.123Z,979.73
2018-05-10T12:08:12.301Z,979.72
2018-05-10T12:09:12.486Z,979.82
2018-05-10T12:10:12.661Z,979.91
2018-05-10T12:11:12.855Z,979.93
2018-05-10T12:12:13.075Z,979.86
2018-05-10T12:13:13.213Z,979.91
2018-05-10T12:14:13.519Z,979.98
2018-05-10T12:15:13.568Z,979.85
2018-05-10T12:16:13.748Z,979.92
2018-05-10T12:17:13.929Z,979.97
2018-05-10T12:18:14.113Z,979.94
2018-05-10T12:19:14.385Z,979.92
2018-05-10T12:20:14.473Z,979.97
2018-05-10T12:21:14.649Z,979.98
2018-05-10T12:22:14.852Z,980.02
2018-05-10T12:23:15.092Z,979.96
2018-05-10T12:24:15.396Z,979.97
2018-05-10T12:25:15.387Z,979.93
2018-05-10T12:26:15.530Z,979.95
2018-05-10T12:27:15.718Z,979.88
2018-05-10T12:28:15.978Z,979.92
2018-05-10T12:29:16.075Z,979.96
2018-05-10T12:30:16.464Z,979.98
2018-05-10T12:31:16.539Z,980.06
2018-05-10T12:32:16.647Z,980.07